sensor_id;sensor_type;location;lat;lon;timestamp;pressure;altitude;pressure_sealevel;temperature;humidity
7760;BME280;3924;48.830;9.262;2022-10-31T00:01:15;99066.59;;;12.79;88.04
7760;BME280;3924;48.830;9.262;2022-10-31T00:03:42;99070.72;;;12.77;87.91
7760;BME280;3924;48.830;9.262;2022-10-31T00:06:08;99064.25;;;12.73;87.49
7760;BME280;3924;48.830;9.262;2022-10-31T00:08:34;99068.38;;;12.70;87.52
7760;BME280;3924;48.830;9.262;2022-10-31T00:11:01;99069.44;;;12.69;87.41
7760;BME280;3924;48.830;9.262;2022-10-31T00:13:28;99071.16;;;12.65;88.23
7760;BME280;3924;48.830;9.262;2022-10-31T00:15:54;99067.63;;;12.65;87.56
7760;BME280;3924;48.830;9.262;2022-10-31T00:18:21;99071.47;;;12.64;87.58
7760;BME280;3924;48.830;9.262;2022-10-31T00:20:47;99065.72;;;12.65;87.57
7760;BME280;3924;48.830;9.262;2022-10-31T00:23:13;99067.63;;;12.65;87.93
7760;BME280;3924;48.830;9.262;2022-10-31T00:25:40;99061.16;;;12.60;87.52
7760;BME280;3924;48.830;9.262;2022-10-31T00:28:08;99071.53;;;12.58;87.59
7760;BME280;3924;48.830;9.262;2022-10-31T00:30:37;99063.13;;;12.55;88.12
7760;BME280;3924;48.830;9.262;2022-10-31T00:33:04;99066.44;;;12.52;88.24
7760;BME280;3924;48.830;9.262;2022-10-31T00:35:31;99068.34;;;12.51;88.19
7760;BME280;3924;48.830;9.262;2022-10-31T00:37:58;99066.75;;;12.50;88.22
7760;BME280;3924;48.830;9.262;2022-10-31T00:40:24;99061.06;;;12.47;88.17
7760;BME280;3924;48.830;9.262;2022-10-31T00:42:51;99075.75;;;12.46;87.72
7760;BME280;3924;48.830;9.262;2022-10-31T00:45:18;99067.09;;;12.44;88.27
7760;BME280;3924;48.830;9.262;2022-10-31T00:47:44;99073.06;;;12.46;88.40
7760;BME280;3924;48.830;9.262;2022-10-31T00:50:11;99070.31;;;12.46;87.62
7760;BME280;3924;48.830;9.262;2022-10-31T00:52:37;99070.94;;;12.43;87.46
7760;BME280;3924;48.830;9.262;2022-10-31T00:55:04;99067.91;;;12.44;88.52
7760;BME280;3924;48.830;9.262;2022-10-31T00:57:30;99063.28;;;12.45;88.41
7760;BME280;3924;48.830;9.262;2022-10-31T00:59:57;99063.84;;;12.42;88.23
7760;BME280;3924;48.830;9.262;2022-10-31T01:02:23;99055.19;;;12.40;88.17
7760;BME280;3924;48.830;9.262;2022-10-31T01:04:50;99054.66;;;12.38;88.04
7760;BME280;3924;48.830;9.262;2022-10-31T01:07:16;99054.38;;;12.39;88.71
7760;BME280;3924;48.830;9.262;2022-10-31T01:09:42;99061.72;;;12.39;88.09
7760;BME280;3924;48.830;9.262;2022-10-31T01:12:09;99066.06;;;12.40;88.37
7760;BME280;3924;48.830;9.262;2022-10-31T01:14:35;99063.34;;;12.40;87.67
7760;BME280;3924;48.830;9.262;2022-10-31T01:17:02;99069.13;;;12.33;88.22
7760;BME280;3924;48.830;9.262;2022-10-31T01:19:28;99058.31;;;12.28;87.80
7760;BME280;3924;48.830;9.262;2022-10-31T01:21:55;99064.03;;;12.26;87.69
7760;BME280;3924;48.830;9.262;2022-10-31T01:24:21;99065.75;;;12.22;87.83
7760;BME280;3924;48.830;9.262;2022-10-31T01:26:48;99066.31;;;12.19;87.98
7760;BME280;3924;48.830;9.262;2022-10-31T01:29:14;99069.53;;;12.21;87.74
7760;BME280;3924;48.830;9.262;2022-10-31T01:31:40;99061.97;;;12.18;88.77
7760;BME280;3924;48.830;9.262;2022-10-31T01:34:12;99067.72;;;12.17;88.17
7760;BME280;3924;48.830;9.262;2022-10-31T01:36:39;99067.41;;;12.18;88.17
7760;BME280;3924;48.830;9.262;2022-10-31T01:39:11;99064.19;;;12.16;88.27
7760;BME280;3924;48.830;9.262;2022-10-31T01:41:42;99066.09;;;12.16;87.69
7760;BME280;3924;48.830;9.262;2022-10-31T01:47:07;99054.41;;;12.15;88.56
7760;BME280;3924;48.830;9.262;2022-10-31T01:49:38;99056.59;;;12.13;88.21
7760;BME280;3924;48.830;9.262;2022-10-31T01:52:20;99051.44;;;12.12;87.56
7760;BME280;3924;48.830;9.262;2022-10-31T01:54:58;99054.47;;;12.10;88.91
7760;BME280;3924;48.830;9.262;2022-10-31T01:57:26;99057.19;;;12.10;89.06
7760;BME280;3924;48.830;9.262;2022-10-31T01:59:56;99050.13;;;12.09;88.60
7760;BME280;3924;48.830;9.262;2022-10-31T02:02:23;99046.88;;;12.07;88.71
7760;BME280;3924;48.830;9.262;2022-10-31T02:04:52;99047.69;;;12.08;88.02
7760;BME280;3924;48.830;9.262;2022-10-31T02:07:42;99042.53;;;12.06;88.02
7760;BME280;3924;48.830;9.262;2022-10-31T02:10:09;99052.31;;;12.07;88.83
7760;BME280;3924;48.830;9.262;2022-10-31T02:12:36;99043.09;;;12.08;87.93
7760;BME280;3924;48.830;9.262;2022-10-31T02:15:04;99050.69;;;12.06;88.67
7760;BME280;3924;48.830;9.262;2022-10-31T02:17:32;99049.09;;;12.05;88.04
7760;BME280;3924;48.830;9.262;2022-10-31T02:20:09;99043.69;;;12.00;87.67
7760;BME280;3924;48.830;9.262;2022-10-31T02:31:18;99043.53;;;11.91;88.81
7760;BME280;3924;48.830;9.262;2022-10-31T02:34:02;99048.75;;;11.88;88.28
7760;BME280;3924;48.830;9.262;2022-10-31T02:36:42;99053.09;;;11.89;88.43
7760;BME280;3924;48.830;9.262;2022-10-31T02:39:21;99053.38;;;11.87;88.06
7760;BME280;3924;48.830;9.262;2022-10-31T02:42:07;99063.94;;;11.89;89.10
7760;BME280;3924;48.830;9.262;2022-10-31T02:44:51;99048.47;;;11.89;88.38
7760;BME280;3924;48.830;9.262;2022-10-31T02:47:33;99049.31;;;11.85;88.16
7760;BME280;3924;48.830;9.262;2022-10-31T02:52:34;99050.44;;;11.78;87.89
7760;BME280;3924;48.830;9.262;2022-10-31T02:58:07;99053.44;;;11.77;88.92
7760;BME280;3924;48.830;9.262;2022-10-31T03:06:45;99047.53;;;11.70;89.16
7760;BME280;3924;48.830;9.262;2022-10-31T03:09:25;99045.13;;;11.68;89.20
7760;BME280;3924;48.830;9.262;2022-10-31T03:12:00;99042.44;;;11.63;88.67
7760;BME280;3924;48.830;9.262;2022-10-31T03:14:40;99040.59;;;11.59;88.44
7760;BME280;3924;48.830;9.262;2022-10-31T03:17:11;99036.56;;;11.56;88.27
7760;BME280;3924;48.830;9.262;2022-10-31T03:19:43;99036.03;;;11.54;88.64
7760;BME280;3924;48.830;9.262;2022-10-31T03:22:22;99031.13;;;11.56;88.31
7760;BME280;3924;48.830;9.262;2022-10-31T03:24:49;99038.75;;;11.54;88.85
7760;BME280;3924;48.830;9.262;2022-10-31T03:27:29;99047.44;;;11.51;89.47
7760;BME280;3924;48.830;9.262;2022-10-31T03:30:01;99046.94;;;11.49;88.54
7760;BME280;3924;48.830;9.262;2022-10-31T03:32:32;99046.13;;;11.48;89.14
7760;BME280;3924;48.830;9.262;2022-10-31T03:35:02;99046.13;;;11.48;88.70
7760;BME280;3924;48.830;9.262;2022-10-31T03:37:32;99044.22;;;11.49;88.27
7760;BME280;3924;48.830;9.262;2022-10-31T03:40:02;99055.09;;;11.49;89.00
7760;BME280;3924;48.830;9.262;2022-10-31T03:42:32;99043.41;;;11.48;88.94
7760;BME280;3924;48.830;9.262;2022-10-31T03:45:08;99045.31;;;11.48;88.28
7760;BME280;3924;48.830;9.262;2022-10-31T03:47:38;99060.22;;;11.50;88.28
7760;BME280;3924;48.830;9.262;2022-10-31T03:50:06;99042.84;;;11.51;88.62
7760;BME280;3924;48.830;9.262;2022-10-31T03:52:37;99048.56;;;11.50;88.45
7760;BME280;3924;48.830;9.262;2022-10-31T03:55:13;99044.53;;;11.47;88.57
7760;BME280;3924;48.830;9.262;2022-10-31T03:58:12;99049.69;;;11.44;88.93
7760;BME280;3924;48.830;9.262;2022-10-31T04:00:44;99051.91;;;11.42;88.43
7760;BME280;3924;48.830;9.262;2022-10-31T04:03:15;99054.59;;;11.42;88.93
7760;BME280;3924;48.830;9.262;2022-10-31T04:05:46;99047.28;;;11.42;89.17
7760;BME280;3924;48.830;9.262;2022-10-31T04:08:17;99047.00;;;11.39;88.16
7760;BME280;3924;48.830;9.262;2022-10-31T04:10:48;99046.00;;;11.35;88.51
7760;BME280;3924;48.830;9.262;2022-10-31T04:13:20;99041.13;;;11.32;88.28
7760;BME280;3924;48.830;9.262;2022-10-31T04:15:50;99044.63;;;11.32;88.52
7760;BME280;3924;48.830;9.262;2022-10-31T04:18:18;99041.69;;;11.29;89.05
7760;BME280;3924;48.830;9.262;2022-10-31T04:20:46;99051.44;;;11.30;89.10
7760;BME280;3924;48.830;9.262;2022-10-31T04:23:26;99039.28;;;11.27;89.11
7760;BME280;3924;48.830;9.262;2022-10-31T04:25:53;99043.91;;;11.27;88.57
7760;BME280;3924;48.830;9.262;2022-10-31T04:28:20;99032.50;;;11.24;88.59
7760;BME280;3924;48.830;9.262;2022-10-31T04:30:46;99033.59;;;11.23;88.68
7760;BME280;3924;48.830;9.262;2022-10-31T04:33:13;99030.66;;;11.20;88.84
7760;BME280;3924;48.830;9.262;2022-10-31T04:35:39;99034.16;;;11.20;89.13
7760;BME280;3924;48.830;9.262;2022-10-31T04:38:06;99034.16;;;11.20;88.66
7760;BME280;3924;48.830;9.262;2022-10-31T04:40:32;99027.94;;;11.20;88.63
7760;BME280;3924;48.830;9.262;2022-10-31T04:42:58;99024.41;;;11.19;89.21
7760;BME280;3924;48.830;9.262;2022-10-31T04:45:25;99024.97;;;11.16;88.42
7760;BME280;3924;48.830;9.262;2022-10-31T04:47:52;99012.53;;;11.10;89.11
7760;BME280;3924;48.830;9.262;2022-10-31T04:50:18;99019.66;;;11.06;88.75
7760;BME280;3924;48.830;9.262;2022-10-31T04:52:46;99009.91;;;11.00;88.78
7760;BME280;3924;48.830;9.262;2022-10-31T04:55:13;99009.41;;;10.98;88.82
7760;BME280;3924;48.830;9.262;2022-10-31T04:57:41;99011.03;;;10.99;89.82
7760;BME280;3924;48.830;9.262;2022-10-31T05:00:09;99008.81;;;11.01;89.33
7760;BME280;3924;48.830;9.262;2022-10-31T05:02:46;99014.84;;;10.98;89.29
7760;BME280;3924;48.830;9.262;2022-10-31T05:05:15;99005.34;;;10.95;88.41
7760;BME280;3924;48.830;9.262;2022-10-31T05:07:42;99009.66;;;10.96;88.51
7760;BME280;3924;48.830;9.262;2022-10-31T05:10:11;99012.66;;;10.95;88.91
7760;BME280;3924;48.830;9.262;2022-10-31T05:12:45;98997.50;;;10.94;89.81
7760;BME280;3924;48.830;9.262;2022-10-31T05:15:13;98999.69;;;10.92;89.04
7760;BME280;3924;48.830;9.262;2022-10-31T05:17:39;98998.09;;;10.86;88.70
7760;BME280;3924;48.830;9.262;2022-10-31T05:20:06;98998.66;;;10.83;89.03
7760;BME280;3924;48.830;9.262;2022-10-31T05:22:33;98993.53;;;10.81;88.69
7760;BME280;3924;48.830;9.262;2022-10-31T05:25:00;98993.53;;;10.81;89.42
7760;BME280;3924;48.830;9.262;2022-10-31T05:27:26;98996.53;;;10.80;88.79
7760;BME280;3924;48.830;9.262;2022-10-31T05:29:52;98996.00;;;10.78;88.72
7760;BME280;3924;48.830;9.262;2022-10-31T05:32:19;98994.91;;;10.79;89.45
7760;BME280;3924;48.830;9.262;2022-10-31T05:34:45;98995.16;;;10.77;88.70
7760;BME280;3924;48.830;9.262;2022-10-31T05:37:12;99005.75;;;10.79;89.64
7760;BME280;3924;48.830;9.262;2022-10-31T05:39:38;98992.44;;;10.77;89.07
7760;BME280;3924;48.830;9.262;2022-10-31T05:42:05;99001.97;;;10.75;88.64
7760;BME280;3924;48.830;9.262;2022-10-31T05:44:31;98992.81;;;10.71;89.34
7760;BME280;3924;48.830;9.262;2022-10-31T05:46:57;98992.81;;;10.71;88.90
7760;BME280;3924;48.830;9.262;2022-10-31T05:49:24;98995.78;;;10.69;89.08
7760;BME280;3924;48.830;9.262;2022-10-31T05:51:51;98987.38;;;10.71;89.85
7760;BME280;3924;48.830;9.262;2022-10-31T05:54:18;98977.34;;;10.71;89.48
7760;BME280;3924;48.830;9.262;2022-10-31T05:56:44;98981.41;;;10.68;88.70
7760;BME280;3924;48.830;9.262;2022-10-31T05:59:10;98989.53;;;10.68;89.03
7760;BME280;3924;48.830;9.262;2022-10-31T06:01:37;98982.50;;;10.67;88.42
7760;BME280;3924;48.830;9.262;2022-10-31T06:04:03;98990.63;;;10.67;89.51
7760;BME280;3924;48.830;9.262;2022-10-31T06:06:30;98989.31;;;10.65;89.15
7760;BME280;3924;48.830;9.262;2022-10-31T06:08:56;98987.69;;;10.64;89.40
7760;BME280;3924;48.830;9.262;2022-10-31T06:11:23;98988.22;;;10.66;89.43
7760;BME280;3924;48.830;9.262;2022-10-31T06:13:49;98989.84;;;10.67;89.33
7760;BME280;3924;48.830;9.262;2022-10-31T06:16:16;98993.34;;;10.67;89.51
7760;BME280;3924;48.830;9.262;2022-10-31T06:18:42;98985.50;;;10.66;88.64
7760;BME280;3924;48.830;9.262;2022-10-31T06:21:08;98984.44;;;10.62;88.87
7760;BME280;3924;48.830;9.262;2022-10-31T06:23:40;98987.94;;;10.62;89.67
7760;BME280;3924;48.830;9.262;2022-10-31T06:26:06;98982.78;;;10.66;89.32
7760;BME280;3924;48.830;9.262;2022-10-31T06:28:32;98987.13;;;10.67;88.95
7760;BME280;3924;48.830;9.262;2022-10-31T06:30:59;98981.69;;;10.67;88.95
7760;BME280;3924;48.830;9.262;2022-10-31T06:33:25;98984.66;;;10.71;88.53
7760;BME280;3924;48.830;9.262;2022-10-31T06:35:52;98981.97;;;10.71;88.89
7760;BME280;3924;48.830;9.262;2022-10-31T06:38:18;98987.91;;;10.73;88.92
7760;BME280;3924;48.830;9.262;2022-10-31T06:40:44;98986.22;;;10.77;89.41
7760;BME280;3924;48.830;9.262;2022-10-31T06:43:11;98981.88;;;10.81;89.34
7760;BME280;3924;48.830;9.262;2022-10-31T06:45:37;98985.91;;;10.83;89.50
7760;BME280;3924;48.830;9.262;2022-10-31T06:48:04;98995.94;;;10.83;88.31
7760;BME280;3924;48.830;9.262;2022-10-31T06:50:47;98988.34;;;10.85;89.36
7760;BME280;3924;48.830;9.262;2022-10-31T06:53:13;98987.78;;;10.88;89.65
7760;BME280;3924;48.830;9.262;2022-10-31T06:55:41;98987.19;;;10.91;88.92
7760;BME280;3924;48.830;9.262;2022-10-31T06:58:09;98992.88;;;10.94;88.79
7760;BME280;3924;48.830;9.262;2022-10-31T07:00:36;98994.75;;;10.99;89.31
7760;BME280;3924;48.830;9.262;2022-10-31T07:03:05;98992.03;;;10.99;88.20
7760;BME280;3924;48.830;9.262;2022-10-31T07:05:32;98993.34;;;11.02;89.15
7760;BME280;3924;48.830;9.262;2022-10-31T07:08:03;98991.69;;;11.06;88.74
7760;BME280;3924;48.830;9.262;2022-10-31T07:10:32;98993.84;;;11.09;89.53
7760;BME280;3924;48.830;9.262;2022-10-31T07:13:10;98994.66;;;11.09;88.51
7760;BME280;3924;48.830;9.262;2022-10-31T07:15:38;98981.88;;;11.10;88.44
7760;BME280;3924;48.830;9.262;2022-10-31T07:18:07;98997.06;;;11.11;88.43
7760;BME280;3924;48.830;9.262;2022-10-31T07:20:34;98996.22;;;11.15;89.20
7760;BME280;3924;48.830;9.262;2022-10-31T07:23:01;98993.75;;;11.19;88.96
7760;BME280;3924;48.830;9.262;2022-10-31T07:25:30;98998.31;;;11.23;88.66
7760;BME280;3924;48.830;9.262;2022-10-31T07:27:57;99002.59;;;11.30;89.43
7760;BME280;3924;48.830;9.262;2022-10-31T07:30:25;99000.94;;;11.34;88.85
7760;BME280;3924;48.830;9.262;2022-10-31T07:32:51;99008.00;;;11.35;88.52
7760;BME280;3924;48.830;9.262;2022-10-31T07:35:20;99006.38;;;11.34;89.07
7760;BME280;3924;48.830;9.262;2022-10-31T07:37:48;98999.25;;;11.38;88.91
7760;BME280;3924;48.830;9.262;2022-10-31T07:40:15;98999.00;;;11.39;88.35
7760;BME280;3924;48.830;9.262;2022-10-31T07:42:44;99003.03;;;11.42;88.94
7760;BME280;3924;48.830;9.262;2022-10-31T07:45:14;99007.88;;;11.45;88.19
7760;BME280;3924;48.830;9.262;2022-10-31T07:47:44;98997.25;;;11.48;88.19
7760;BME280;3924;48.830;9.262;2022-10-31T07:50:14;98992.28;;;11.56;88.52
7760;BME280;3924;48.830;9.262;2022-10-31T07:52:41;98997.69;;;11.61;87.53
7760;BME280;3924;48.830;9.262;2022-10-31T07:55:07;98998.72;;;11.65;88.22
7760;BME280;3924;48.830;9.262;2022-10-31T07:57:34;98995.66;;;11.71;88.39
7760;BME280;3924;48.830;9.262;2022-10-31T08:00:04;98991.78;;;11.77;88.06
7760;BME280;3924;48.830;9.262;2022-10-31T08:02:30;98994.47;;;11.83;88.48
7760;BME280;3924;48.830;9.262;2022-10-31T08:04:57;99000.88;;;11.92;87.87
7760;BME280;3924;48.830;9.262;2022-10-31T08:07:27;98998.03;;;12.02;87.99
7760;BME280;3924;48.830;9.262;2022-10-31T08:09:55;98995.78;;;12.09;87.64
7760;BME280;3924;48.830;9.262;2022-10-31T08:12:22;98999.47;;;12.18;87.20
7760;BME280;3924;48.830;9.262;2022-10-31T08:15:13;99000.41;;;12.27;87.57
7760;BME280;3924;48.830;9.262;2022-10-31T08:17:39;98997.13;;;12.30;87.30
7760;BME280;3924;48.830;9.262;2022-10-31T08:20:06;98995.97;;;12.37;87.69
7760;BME280;3924;48.830;9.262;2022-10-31T08:22:33;98997.50;;;12.43;87.60
7760;BME280;3924;48.830;9.262;2022-10-31T08:25:06;98996.59;;;12.47;87.51
7760;BME280;3924;48.830;9.262;2022-10-31T08:27:33;98994.63;;;12.53;87.27
7760;BME280;3924;48.830;9.262;2022-10-31T08:30:00;99007.56;;;12.61;87.26
7760;BME280;3924;48.830;9.262;2022-10-31T08:32:27;98995.00;;;12.65;86.84
7760;BME280;3924;48.830;9.262;2022-10-31T08:34:54;98998.44;;;12.71;87.28
7760;BME280;3924;48.830;9.262;2022-10-31T08:37:20;98992.09;;;12.75;86.75
7760;BME280;3924;48.830;9.262;2022-10-31T08:39:46;98991.53;;;12.78;86.46
7760;BME280;3924;48.830;9.262;2022-10-31T08:42:15;98994.75;;;12.80;87.00
7760;BME280;3924;48.830;9.262;2022-10-31T08:44:41;98985.56;;;12.76;86.18
7760;BME280;3924;48.830;9.262;2022-10-31T08:47:08;98986.28;;;12.82;87.10
7760;BME280;3924;48.830;9.262;2022-10-31T08:49:34;98982.69;;;12.86;86.18
7760;BME280;3924;48.830;9.262;2022-10-31T08:52:00;98985.91;;;12.88;86.63
7760;BME280;3924;48.830;9.262;2022-10-31T08:54:28;98976.63;;;12.90;85.92
7760;BME280;3924;48.830;9.262;2022-10-31T08:56:55;98982.00;;;12.95;86.39
7760;BME280;3924;48.830;9.262;2022-10-31T08:59:22;98968.25;;;13.05;86.27
7760;BME280;3924;48.830;9.262;2022-10-31T09:01:48;98963.22;;;13.12;86.10
7760;BME280;3924;48.830;9.262;2022-10-31T09:04:15;98963.63;;;13.19;85.83
7760;BME280;3924;48.830;9.262;2022-10-31T09:06:41;98965.47;;;13.24;86.02
7760;BME280;3924;48.830;9.262;2022-10-31T09:09:20;98960.44;;;13.31;86.23
7760;BME280;3924;48.830;9.262;2022-10-31T09:11:47;98959.25;;;13.37;86.06
7760;BME280;3924;48.830;9.262;2022-10-31T09:14:13;98964.28;;;13.44;85.81
7760;BME280;3924;48.830;9.262;2022-10-31T09:16:39;98966.13;;;13.48;85.69
7760;BME280;3924;48.830;9.262;2022-10-31T09:19:06;98967.34;;;13.56;85.56
7760;BME280;3924;48.830;9.262;2022-10-31T09:21:37;98954.63;;;13.65;85.60
7760;BME280;3924;48.830;9.262;2022-10-31T09:24:03;98968.16;;;13.70;85.23
7760;BME280;3924;48.830;9.262;2022-10-31T09:26:30;98957.16;;;13.75;85.47
7760;BME280;3924;48.830;9.262;2022-10-31T09:28:57;98963.09;;;13.77;85.18
7760;BME280;3924;48.830;9.262;2022-10-31T09:31:24;98963.09;;;13.77;84.92
7760;BME280;3924;48.830;9.262;2022-10-31T09:33:52;98950.19;;;13.83;85.07
7760;BME280;3924;48.830;9.262;2022-10-31T09:36:19;98948.16;;;13.88;85.09
7760;BME280;3924;48.830;9.262;2022-10-31T09:38:46;98949.69;;;13.94;84.61
7760;BME280;3924;48.830;9.262;2022-10-31T09:41:32;98950.66;;;13.99;84.75
7760;BME280;3924;48.830;9.262;2022-10-31T09:44:04;98948.63;;;14.04;84.38
7760;BME280;3924;48.830;9.262;2022-10-31T09:47:03;98946.41;;;14.06;84.93
7760;BME280;3924;48.830;9.262;2022-10-31T09:49:53;98948.03;;;14.07;85.11
7760;BME280;3924;48.830;9.262;2022-10-31T09:52:30;98947.41;;;14.10;85.00
7760;BME280;3924;48.830;9.262;2022-10-31T09:55:30;98945.88;;;14.18;84.23
7760;BME280;3924;48.830;9.262;2022-10-31T09:57:59;98944.03;;;14.27;84.23
7760;BME280;3924;48.830;9.262;2022-10-31T10:00:27;98942.22;;;14.36;84.46
7760;BME280;3924;48.830;9.262;2022-10-31T10:03:41;98929.69;;;14.49;83.84
7760;BME280;3924;48.830;9.262;2022-10-31T10:06:23;98931.66;;;14.57;83.79
7760;BME280;3924;48.830;9.262;2022-10-31T10:08:50;98936.06;;;14.67;83.33
7760;BME280;3924;48.830;9.262;2022-10-31T10:17:12;98938.59;;;14.86;83.18
7760;BME280;3924;48.830;9.262;2022-10-31T10:28:36;98926.78;;;15.30;82.53
7760;BME280;3924;48.830;9.262;2022-10-31T10:31:14;98924.94;;;15.39;82.54
7760;BME280;3924;48.830;9.262;2022-10-31T10:36:42;98918.56;;;15.52;81.83
7760;BME280;3924;48.830;9.262;2022-10-31T10:39:17;98917.09;;;15.55;81.69
7760;BME280;3924;48.830;9.262;2022-10-31T10:41:49;98915.03;;;15.60;82.39
7760;BME280;3924;48.830;9.262;2022-10-31T10:44:45;98914.59;;;15.67;82.07
7760;BME280;3924;48.830;9.262;2022-10-31T10:47:39;98909.94;;;15.68;82.12
7760;BME280;3924;48.830;9.262;2022-10-31T10:50:20;98917.00;;;15.69;81.95
7760;BME280;3924;48.830;9.262;2022-10-31T10:57:16;98900.75;;;15.64;82.05
7760;BME280;3924;48.830;9.262;2022-10-31T10:59:16;98898.63;;;15.60;81.37
7760;BME280;3924;48.830;9.262;2022-10-31T11:01:45;98900.28;;;15.62;81.71
7760;BME280;3924;48.830;9.262;2022-10-31T11:04:25;98893.34;;;15.64;81.90
7760;BME280;3924;48.830;9.262;2022-10-31T11:07:04;98883.72;;;15.67;81.32
7760;BME280;3924;48.830;9.262;2022-10-31T11:09:33;98881.63;;;15.64;81.89
7760;BME280;3924;48.830;9.262;2022-10-31T11:14:54;98874.03;;;15.60;81.27
7760;BME280;3924;48.830;9.262;2022-10-31T11:17:46;98871.50;;;15.64;81.14
7760;BME280;3924;48.830;9.262;2022-10-31T11:22:46;98857.88;;;15.73;81.73
7760;BME280;3924;48.830;9.262;2022-10-31T11:25:23;98852.41;;;15.81;80.71
7760;BME280;3924;48.830;9.262;2022-10-31T11:28:02;98858.84;;;15.94;80.76
7760;BME280;3924;48.830;9.262;2022-10-31T11:30:36;98846.78;;;16.12;80.51
7760;BME280;3924;48.830;9.262;2022-10-31T11:36:01;98845.28;;;16.67;78.90
7760;BME280;3924;48.830;9.262;2022-10-31T11:38:40;98833.84;;;16.74;79.08
7760;BME280;3924;48.830;9.262;2022-10-31T11:41:17;98834.34;;;16.76;79.13
7760;BME280;3924;48.830;9.262;2022-10-31T11:43:54;98828.88;;;16.76;79.59
7760;BME280;3924;48.830;9.262;2022-10-31T11:46:34;98820.66;;;16.76;78.51
7760;BME280;3924;48.830;9.262;2022-10-31T11:49:03;98826.59;;;16.78;79.40
7760;BME280;3924;48.830;9.262;2022-10-31T11:51:34;98819.38;;;16.82;79.12
7760;BME280;3924;48.830;9.262;2022-10-31T11:54:15;98815.28;;;16.88;78.14
7760;BME280;3924;48.830;9.262;2022-10-31T11:56:45;98818.03;;;16.97;78.77
7760;BME280;3924;48.830;9.262;2022-10-31T11:59:23;98804.00;;;16.98;78.70
7760;BME280;3924;48.830;9.262;2022-10-31T12:01:55;98809.94;;;17.00;78.26
7760;BME280;3924;48.830;9.262;2022-10-31T12:04:35;98806.38;;;17.00;77.91
7760;BME280;3924;48.830;9.262;2022-10-31T12:07:04;98811.22;;;17.03;77.77
7760;BME280;3924;48.830;9.262;2022-10-31T12:09:36;98811.53;;;17.01;78.32
7760;BME280;3924;48.830;9.262;2022-10-31T12:12:26;98804.44;;;17.00;77.55
7760;BME280;3924;48.830;9.262;2022-10-31T12:15:11;98797.84;;;17.01;77.24
7760;BME280;3924;48.830;9.262;2022-10-31T12:18:09;98795.78;;;16.98;78.38
7760;BME280;3924;48.830;9.262;2022-10-31T12:21:02;98785.94;;;16.97;77.21
7760;BME280;3924;48.830;9.262;2022-10-31T12:26:24;98775.50;;;17.20;77.83
7760;BME280;3924;48.830;9.262;2022-10-31T12:29:10;98771.66;;;17.42;76.33
7760;BME280;3924;48.830;9.262;2022-10-31T12:32:28;98763.16;;;17.64;76.21
7760;BME280;3924;48.830;9.262;2022-10-31T12:37:50;98755.31;;;17.54;76.60
7760;BME280;3924;48.830;9.262;2022-10-31T12:40:49;98753.28;;;17.42;77.22
7760;BME280;3924;48.830;9.262;2022-10-31T12:46:09;98746.19;;;17.20;77.25
7760;BME280;3924;48.830;9.262;2022-10-31T12:51:43;98743.25;;;16.96;77.81
7760;BME280;3924;48.830;9.262;2022-10-31T13:00:33;98734.97;;;16.75;77.91
7760;BME280;3924;48.830;9.262;2022-10-31T13:03:26;98717.25;;;16.73;78.10
7760;BME280;3924;48.830;9.262;2022-10-31T13:06:07;98717.09;;;16.69;77.43
7760;BME280;3924;48.830;9.262;2022-10-31T13:08:52;98714.06;;;16.62;77.74
7760;BME280;3924;48.830;9.262;2022-10-31T13:11:35;98712.31;;;16.57;78.03
7760;BME280;3924;48.830;9.262;2022-10-31T13:17:42;98706.84;;;16.57;77.32
7760;BME280;3924;48.830;9.262;2022-10-31T13:20:23;98692.00;;;16.58;77.80
7760;BME280;3924;48.830;9.262;2022-10-31T13:23:03;98692.81;;;16.59;77.42
7760;BME280;3924;48.830;9.262;2022-10-31T13:25:54;98688.63;;;16.61;77.78
7760;BME280;3924;48.830;9.262;2022-10-31T13:28:45;98680.41;;;16.61;78.48
7760;BME280;3924;48.830;9.262;2022-10-31T13:31:20;98676.22;;;16.64;77.51
7760;BME280;3924;48.830;9.262;2022-10-31T13:34:03;98672.66;;;16.63;78.00
7760;BME280;3924;48.830;9.262;2022-10-31T13:42:25;98666.53;;;16.66;77.29
7760;BME280;3924;48.830;9.262;2022-10-31T13:45:21;98666.13;;;16.85;77.26
7760;BME280;3924;48.830;9.262;2022-10-31T13:50:32;98676.22;;;17.44;77.16
7760;BME280;3924;48.830;9.262;2022-10-31T13:55:50;98686.16;;;17.69;75.04
7760;BME280;3924;48.830;9.262;2022-10-31T13:58:54;98683.63;;;17.64;76.23
7760;BME280;3924;48.830;9.262;2022-10-31T14:01:23;98673.53;;;17.56;76.01
7760;BME280;3924;48.830;9.262;2022-10-31T14:09:41;98639.53;;;17.36;76.34
7760;BME280;3924;48.830;9.262;2022-10-31T14:12:35;98640.72;;;17.27;77.22
7760;BME280;3924;48.830;9.262;2022-10-31T14:15:24;98638.06;;;17.18;76.19
7760;BME280;3924;48.830;9.262;2022-10-31T14:18:01;98646.00;;;17.11;77.09
7760;BME280;3924;48.830;9.262;2022-10-31T14:20:43;98654.75;;;17.04;76.68
7760;BME280;3924;48.830;9.262;2022-10-31T14:29:21;98631.56;;;17.02;76.73
7760;BME280;3924;48.830;9.262;2022-10-31T14:32:04;98635.75;;;16.99;76.77
7760;BME280;3924;48.830;9.262;2022-10-31T14:43:17;98634.00;;;16.94;77.20
7760;BME280;3924;48.830;9.262;2022-10-31T14:46:00;98628.25;;;16.87;76.94
7760;BME280;3924;48.830;9.262;2022-10-31T14:49:22;98629.94;;;16.80;77.33
7760;BME280;3924;48.830;9.262;2022-10-31T14:51:55;98626.91;;;16.73;77.37
7760;BME280;3924;48.830;9.262;2022-10-31T14:54:33;98618.84;;;16.67;77.10
7760;BME280;3924;48.830;9.262;2022-10-31T14:57:13;98617.59;;;16.65;76.66
7760;BME280;3924;48.830;9.262;2022-10-31T14:59:46;98619.88;;;16.63;77.54
7760;BME280;3924;48.830;9.262;2022-10-31T15:02:24;98616.16;;;16.59;77.97
7760;BME280;3924;48.830;9.262;2022-10-31T15:04:52;98612.00;;;16.53;78.11
7760;BME280;3924;48.830;9.262;2022-10-31T15:07:24;98614.97;;;16.48;77.39
7760;BME280;3924;48.830;9.262;2022-10-31T15:10:05;98618.69;;;16.43;77.29
7760;BME280;3924;48.830;9.262;2022-10-31T15:12:41;98614.00;;;16.44;77.57
7760;BME280;3924;48.830;9.262;2022-10-31T15:15:12;98620.75;;;16.46;78.38
7760;BME280;3924;48.830;9.262;2022-10-31T15:17:51;98619.63;;;16.47;78.45
7760;BME280;3924;48.830;9.262;2022-10-31T15:20:26;98613.66;;;16.45;78.36
7760;BME280;3924;48.830;9.262;2022-10-31T15:22:55;98618.22;;;16.41;77.77
7760;BME280;3924;48.830;9.262;2022-10-31T15:25:25;98605.34;;;16.33;77.69
7760;BME280;3924;48.830;9.262;2022-10-31T15:27:52;98607.78;;;16.26;78.05
7760;BME280;3924;48.830;9.262;2022-10-31T15:30:24;98611.38;;;16.18;77.93
7760;BME280;3924;48.830;9.262;2022-10-31T15:32:52;98614.28;;;16.12;78.64
7760;BME280;3924;48.830;9.262;2022-10-31T15:35:31;98605.16;;;16.08;79.07